Time;durP1;ratioP1;P1;durP2;ratioP2;P2;SDS_P1;SDS_P2;PMS_P1;PMS_P2;Temp;Humidity;BMP_temperature;BMP_pressure;BME280_temperature;BME280_humidity;BME280_pressure;Samples;Min_cycle;Max_cycle;Signal;HPM_P1;HPM_P2
2022/07/13 00:03:42;;;;;;;3.10;2.20;;;;;;;;;;10281845;28;20132;-65
2022/07/13 00:08:43;;;;;;;4.13;2.50;;;;;;;;;;10285114;28;20030;-68
2022/07/13 00:13:43;;;;;;;9.18;2.72;;;;;;;;;;10285134;28;20506;-65
2022/07/13 00:18:44;;;;;;;5.95;2.28;;;;;;;;;;10284993;28;20487;-64
2022/07/13 00:23:44;;;;;;;8.77;2.42;;;;;;;;;;10279364;28;20034;-65
2022/07/13 00:28:45;;;;;;;4.38;1.95;;;;;;;;;;10281620;28;20035;-66
2022/07/13 00:33:45;;;;;;;14.23;2.20;;;;;;;;;;10283339;28;20023;-66
2022/07/13 00:38:46;;;;;;;4.47;2.20;;;;;;;;;;10285238;28;20023;-67
2022/07/13 00:43:47;;;;;;;7.32;2.72;;;;;;;;;;10291932;28;20534;-66
2022/07/13 00:48:47;;;;;;;6.60;2.63;;;;;;;;;;10291545;28;20070;-66
2022/07/13 00:53:48;;;;;;;3.80;2.17;;;;;;;;;;10289923;28;20105;-66
2022/07/13 00:58:49;;;;;;;7.20;1.92;;;;;;;;;;10292650;28;20068;-66
2022/07/13 01:03:50;;;;;;;6.80;2.03;;;;;;;;;;10284118;28;20026;-66
2022/07/13 01:08:50;;;;;;;7.72;1.90;;;;;;;;;;10283279;28;20037;-65
2022/07/13 01:13:51;;;;;;;21.38;2.15;;;;;;;;;;10281207;28;20026;-65
2022/07/13 01:18:52;;;;;;;8.20;1.75;;;;;;;;;;10291988;28;20023;-62
2022/07/13 01:23:52;;;;;;;3.60;2.00;;;;;;;;;;10291195;28;20331;-65
2022/07/13 01:28:53;;;;;;;5.65;1.73;;;;;;;;;;10289299;28;20049;-65
2022/07/13 01:33:54;;;;;;;6.10;1.92;;;;;;;;;;10285669;28;20030;-62
2022/07/13 01:38:56;;;;;;;4.93;1.95;;;;;;;;;;10291736;28;20039;-64
2022/07/13 01:43:59;;;;;;;4.20;1.60;;;;;;;;;;10290506;28;20027;-64
2022/07/13 01:48:59;;;;;;;4.03;1.80;;;;;;;;;;10289316;28;20054;-66
2022/07/13 01:54:00;;;;;;;4.97;2.00;;;;;;;;;;10285099;28;20047;-62
2022/07/13 01:59:02;;;;;;;7.55;1.83;;;;;;;;;;10285314;28;20082;-57
2022/07/13 02:04:03;;;;;;;4.88;2.30;;;;;;;;;;10290722;28;20470;-61
2022/07/13 02:09:03;;;;;;;4.40;1.77;;;;;;;;;;10285024;28;20078;-62
2022/07/13 02:14:04;;;;;;;3.08;1.70;;;;;;;;;;10284077;28;20054;-60
2022/07/13 02:19:05;;;;;;;2.90;1.65;;;;;;;;;;10289790;28;20089;-63
2022/07/13 02:24:05;;;;;;;6.47;2.05;;;;;;;;;;10289948;28;20090;-61
2022/07/13 02:29:06;;;;;;;4.30;1.75;;;;;;;;;;10290056;28;20042;-65
2022/07/13 02:34:06;;;;;;;6.70;1.90;;;;;;;;;;10282288;28;20043;-63
2022/07/13 02:39:07;;;;;;;4.13;2.03;;;;;;;;;;10287260;28;20030;-65
2022/07/13 02:44:07;;;;;;;9.60;2.00;;;;;;;;;;10279917;28;20085;-65
2022/07/13 02:49:08;;;;;;;2.85;1.63;;;;;;;;;;10288933;28;20034;-62
2022/07/13 02:54:09;;;;;;;6.78;2.08;;;;;;;;;;10287225;28;20029;-65
2022/07/13 02:59:10;;;;;;;4.55;2.17;;;;;;;;;;10287429;28;20042;-63
2022/07/13 03:04:11;;;;;;;9.32;2.50;;;;;;;;;;10287254;28;20363;-66
2022/07/13 03:09:11;;;;;;;8.85;2.33;;;;;;;;;;10271261;28;20027;-65
2022/07/13 03:14:12;;;;;;;8.00;2.33;;;;;;;;;;10284260;28;20031;-66
2022/07/13 03:19:13;;;;;;;5.93;3.03;;;;;;;;;;10288183;28;20038;-57
2022/07/13 03:24:14;;;;;;;9.73;3.25;;;;;;;;;;10251980;28;20530;-52
2022/07/13 03:29:14;;;;;;;12.93;3.58;;;;;;;;;;10285442;28;20043;-55
2022/07/13 03:34:15;;;;;;;4.45;2.50;;;;;;;;;;10286878;28;20030;-55
2022/07/13 03:39:16;;;;;;;9.93;2.50;;;;;;;;;;10285721;28;20035;-55
2022/07/13 03:44:16;;;;;;;6.82;3.00;;;;;;;;;;10286649;28;20081;-58
2022/07/13 03:49:17;;;;;;;4.45;2.53;;;;;;;;;;10285725;28;20490;-56
2022/07/13 03:54:17;;;;;;;8.73;2.33;;;;;;;;;;10286867;28;20483;-52
2022/07/13 03:59:18;;;;;;;6.13;2.92;;;;;;;;;;10286212;28;20041;-53
2022/07/13 04:04:18;;;;;;;6.97;2.70;;;;;;;;;;10278672;28;20034;-56
2022/07/13 04:09:19;;;;;;;8.18;2.80;;;;;;;;;;10285527;28;20035;-57
2022/07/13 04:14:20;;;;;;;8.43;2.95;;;;;;;;;;10284472;28;20526;-50
2022/07/13 04:19:20;;;;;;;8.50;2.90;;;;;;;;;;10282205;28;20048;-58
2022/07/13 04:24:22;;;;;;;7.47;3.08;;;;;;;;;;10284355;28;20054;-65
2022/07/13 04:29:22;;;;;;;8.55;2.80;;;;;;;;;;10285492;28;20078;-58
2022/07/13 04:34:23;;;;;;;6.85;2.80;;;;;;;;;;10285148;28;20027;-60
2022/07/13 04:39:23;;;;;;;5.82;2.50;;;;;;;;;;10284362;28;20026;-61
2022/07/13 04:44:26;;;;;;;7.55;2.22;;;;;;;;;;10284705;28;20034;-58
2022/07/13 04:49:27;;;;;;;14.85;3.00;;;;;;;;;;10282386;28;20552;-56
2022/07/13 04:54:27;;;;;;;13.02;2.40;;;;;;;;;;10282643;28;20027;-59
2022/07/13 04:59:28;;;;;;;7.85;2.60;;;;;;;;;;10290337;28;20174;-59
2022/07/13 05:04:28;;;;;;;7.05;2.60;;;;;;;;;;10282031;28;20034;-58
2022/07/13 05:09:30;;;;;;;6.95;2.72;;;;;;;;;;10285009;28;21859;-64
2022/07/13 05:14:31;;;;;;;6.82;2.50;;;;;;;;;;10282062;28;20031;-64
2022/07/13 05:19:32;;;;;;;7.15;2.65;;;;;;;;;;10282220;28;20395;-52
2022/07/13 05:24:32;;;;;;;9.55;2.38;;;;;;;;;;10331576;23;20062;-57
2022/07/13 05:29:33;;;;;;;4.68;2.20;;;;;;;;;;10405664;28;20037;-54
2022/07/13 05:34:34;;;;;;;4.47;2.22;;;;;;;;;;10395690;28;20025;-55
2022/07/13 05:39:35;;;;;;;11.82;2.40;;;;;;;;;;10410282;28;20489;-52
2022/07/13 05:44:35;;;;;;;30.85;4.53;;;;;;;;;;10402351;28;20104;-55
2022/07/13 05:49:36;;;;;;;13.50;3.38;;;;;;;;;;10394701;28;20504;-58
2022/07/13 05:54:36;;;;;;;11.20;2.58;;;;;;;;;;10396437;28;20337;-54
2022/07/13 05:59:37;;;;;;;6.72;2.13;;;;;;;;;;10385811;28;20041;-54
2022/07/13 06:04:38;;;;;;;6.95;2.47;;;;;;;;;;10404067;28;20105;-56
2022/07/13 06:09:38;;;;;;;6.30;2.55;;;;;;;;;;10408829;28;20049;-58
2022/07/13 06:14:39;;;;;;;14.73;2.88;;;;;;;;;;10391764;28;20334;-58
2022/07/13 06:19:39;;;;;;;6.15;2.40;;;;;;;;;;10393431;28;20044;-58
2022/07/13 06:24:41;;;;;;;7.38;2.33;;;;;;;;;;10397371;28;20111;-57
2022/07/13 06:29:42;;;;;;;12.55;2.45;;;;;;;;;;10404788;28;20255;-51
2022/07/13 06:34:42;;;;;;;7.15;2.28;;;;;;;;;;10405710;28;20157;-52
2022/07/13 06:39:43;;;;;;;4.38;2.05;;;;;;;;;;10403949;28;20080;-51
2022/07/13 06:44:44;;;;;;;6.22;1.92;;;;;;;;;;10406128;28;20025;-51
2022/07/13 06:49:45;;;;;;;4.68;1.90;;;;;;;;;;10408904;28;20040;-55
2022/07/13 06:54:46;;;;;;;5.13;1.90;;;;;;;;;;10396193;28;20033;-55
2022/07/13 06:59:46;;;;;;;4.30;2.10;;;;;;;;;;10406666;28;20220;-49
2022/07/13 07:04:47;;;;;;;6.95;2.17;;;;;;;;;;10404828;28;20389;-51
2022/07/13 07:09:47;;;;;;;4.85;2.03;;;;;;;;;;10404484;28;20393;-57
2022/07/13 07:14:48;;;;;;;7.80;2.30;;;;;;;;;;10409196;28;20092;-57
2022/07/13 07:19:49;;;;;;;5.90;1.80;;;;;;;;;;10409326;28;20461;-57
2022/07/13 07:24:50;;;;;;;6.57;2.03;;;;;;;;;;10401455;28;20511;-56
2022/07/13 07:29:51;;;;;;;5.07;2.28;;;;;;;;;;10406246;28;20033;-58
2022/07/13 07:34:52;;;;;;;4.38;1.58;;;;;;;;;;10406021;28;20021;-57
2022/07/13 07:39:52;;;;;;;5.60;2.00;;;;;;;;;;10399606;28;20037;-56
2022/07/13 07:44:53;;;;;;;3.38;1.52;;;;;;;;;;10402822;28;20026;-55
2022/07/13 07:49:54;;;;;;;4.55;1.60;;;;;;;;;;10402233;28;20116;-57
2022/07/13 07:54:54;;;;;;;8.93;1.75;;;;;;;;;;10383817;28;20092;-58
2022/07/13 07:59:55;;;;;;;3.03;1.58;;;;;;;;;;10403350;28;20041;-54
2022/07/13 08:04:56;;;;;;;2.83;1.60;;;;;;;;;;10402678;28;20041;-56
2022/07/13 08:09:56;;;;;;;2.75;1.85;;;;;;;;;;10404642;28;20086;-58
2022/07/13 08:14:57;;;;;;;4.05;1.27;;;;;;;;;;10399913;28;20029;-59
2022/07/13 08:19:58;;;;;;;1.65;1.30;;;;;;;;;;10404933;28;20049;-57
2022/07/13 08:24:58;;;;;;;4.97;1.58;;;;;;;;;;10403186;28;20053;-57
2022/07/13 08:29:59;;;;;;;4.22;1.45;;;;;;;;;;10398770;28;20087;-56
2022/07/13 08:40:20;;;;;;;2.03;1.25;;;;;;;;;;10398709;28;20030;-58
2022/07/13 08:45:21;;;;;;;3.53;1.65;;;;;;;;;;10400499;28;20024;-58
2022/07/13 08:50:22;;;;;;;3.03;1.38;;;;;;;;;;10403356;28;20109;-59
2022/07/13 08:55:24;;;;;;;2.92;1.63;;;;;;;;;;10381952;28;20025;-57
2022/07/13 09:00:24;;;;;;;3.25;1.48;;;;;;;;;;10398662;28;20108;-58
2022/07/13 09:05:26;;;;;;;4.07;1.73;;;;;;;;;;10406948;28;20025;-58
2022/07/13 09:10:27;;;;;;;4.53;1.77;;;;;;;;;;10407514;28;20543;-58
2022/07/13 09:15:27;;;;;;;2.72;1.85;;;;;;;;;;10406803;28;20033;-57
2022/07/13 09:20:28;;;;;;;3.33;1.63;;;;;;;;;;10410997;28;20017;-55
2022/07/13 09:25:37;;;;;;;2.50;1.77;;;;;;;;;;10399973;28;20268;-54
2022/07/13 09:30:42;;;;;;;4.38;2.08;;;;;;;;;;10406555;28;20037;-58
2022/07/13 09:35:48;;;;;;;3.80;1.52;;;;;;;;;;10411796;28;20053;-57
2022/07/13 09:40:48;;;;;;;3.40;1.70;;;;;;;;;;10399437;28;20675;-58
2022/07/13 09:51:09;;;;;;;2.40;1.65;;;;;;;;;;10407699;28;20029;-53
2022/07/13 09:56:10;;;;;;;3.05;1.70;;;;;;;;;;10396536;28;20429;-57
2022/07/13 10:01:11;;;;;;;1.65;1.40;;;;;;;;;;10408473;28;20100;-58
2022/07/13 10:06:12;;;;;;;8.18;1.65;;;;;;;;;;10403482;28;20460;-57
2022/07/13 10:11:13;;;;;;;1.88;1.50;;;;;;;;;;10407144;28;20116;-57
2022/07/13 10:16:14;;;;;;;4.03;1.65;;;;;;;;;;10404372;28;20484;-56
2022/07/13 10:21:51;;;;;;;1.58;1.38;;;;;;;;;;10406635;28;20026;-58
2022/07/13 10:27:12;;;;;;;2.65;1.83;;;;;;;;;;10407656;28;20045;-56
2022/07/13 10:32:20;;;;;;;2.47;1.63;;;;;;;;;;10409873;28;20207;-59
2022/07/13 10:37:21;;;;;;;2.10;1.70;;;;;;;;;;10410442;28;20495;-56
2022/07/13 10:42:21;;;;;;;4.00;1.75;;;;;;;;;;10407482;28;20057;-57
2022/07/13 10:47:44;;;;;;;2.90;1.45;;;;;;;;;;10404651;28;20508;-58
2022/07/13 10:52:45;;;;;;;1.88;1.70;;;;;;;;;;10399785;28;20470;-58
2022/07/13 10:57:46;;;;;;;3.70;1.63;;;;;;;;;;10399582;28;20136;-56
2022/07/13 11:03:03;;;;;;;3.75;1.70;;;;;;;;;;10407750;28;20025;-58
2022/07/13 11:08:13;;;;;;;2.03;1.38;;;;;;;;;;10404720;28;20029;-58
2022/07/13 11:13:24;;;;;;;1.98;1.30;;;;;;;;;;10404738;28;20392;-58
2022/07/13 11:18:28;;;;;;;3.03;1.48;;;;;;;;;;10407500;28;20273;-58
2022/07/13 11:29:24;;;;;;;3.30;1.60;;;;;;;;;;10408163;28;20117;-55
2022/07/13 11:34:26;;;;;;;3.92;1.60;;;;;;;;;;10403725;28;20246;-58
2022/07/13 11:39:35;;;;;;;8.75;1.73;;;;;;;;;;10403061;28;20123;-57
2022/07/13 11:44:36;;;;;;;2.22;1.60;;;;;;;;;;10403301;28;20477;-58
2022/07/13 11:49:46;;;;;;;2.22;1.35;;;;;;;;;;10397879;28;20100;-55
2022/07/13 11:54:59;;;;;;;1.88;1.40;;;;;;;;;;10385029;28;20037;-54
2022/07/13 12:00:04;;;;;;;1.80;1.42;;;;;;;;;;10400352;28;20600;-57
2022/07/13 12:05:05;;;;;;;5.47;2.15;;;;;;;;;;10402069;28;20112;-58
2022/07/13 12:10:07;;;;;;;1.73;1.40;;;;;;;;;;10401387;28;20099;-57
2022/07/13 12:15:09;;;;;;;2.15;1.50;;;;;;;;;;10404022;28;20128;-55
2022/07/13 12:20:11;;;;;;;8.02;1.92;;;;;;;;;;10403809;28;20053;-54
2022/07/13 12:25:32;;;;;;;5.25;1.55;;;;;;;;;;10402059;28;20529;-56
2022/07/13 12:30:34;;;;;;;3.85;1.75;;;;;;;;;;10389301;28;20072;-56
2022/07/13 12:35:38;;;;;;;4.63;1.52;;;;;;;;;;10405107;28;20107;-57
2022/07/13 12:40:49;;;;;;;2.03;1.70;;;;;;;;;;10414851;28;20025;-56
2022/07/13 12:45:57;;;;;;;2.90;1.58;;;;;;;;;;10413065;28;20073;-58
2022/07/13 12:51:11;;;;;;;2.28;1.70;;;;;;;;;;10412363;28;20077;-57
2022/07/13 12:56:13;;;;;;;3.70;1.80;;;;;;;;;;10399416;28;20398;-58
2022/07/13 13:01:36;;;;;;;4.93;1.73;;;;;;;;;;10391685;28;20029;-57
2022/07/13 13:06:40;;;;;;;2.25;1.45;;;;;;;;;;10393575;28;20484;-57
2022/07/13 13:11:44;;;;;;;2.90;1.52;;;;;;;;;;10398073;28;20085;-55
2022/07/13 13:16:45;;;;;;;2.25;1.70;;;;;;;;;;10391649;28;20033;-57
2022/07/13 13:21:46;;;;;;;6.15;1.65;;;;;;;;;;10397192;28;20025;-50
2022/07/13 13:26:46;;;;;;;5.75;1.90;;;;;;;;;;10409243;28;20504;-57
2022/07/13 13:31:47;;;;;;;10.38;1.80;;;;;;;;;;10400848;28;20485;-56
2022/07/13 13:36:49;;;;;;;4.10;2.13;;;;;;;;;;10407717;28;20049;-56
2022/07/13 13:41:50;;;;;;;4.03;1.80;;;;;;;;;;10413253;28;20474;-50
2022/07/13 13:46:50;;;;;;;6.38;1.90;;;;;;;;;;10405192;28;20077;-54
2022/07/13 13:51:51;;;;;;;4.60;2.00;;;;;;;;;;10411375;28;20038;-56
2022/07/13 13:56:52;;;;;;;4.45;1.90;;;;;;;;;;10397318;28;20365;-49
2022/07/13 14:01:52;;;;;;;7.10;1.95;;;;;;;;;;10383797;28;20035;-49
2022/07/13 14:06:53;;;;;;;18.50;2.30;;;;;;;;;;10389591;28;20026;-57
2022/07/13 14:11:54;;;;;;;23.48;2.45;;;;;;;;;;10397722;28;20034;-56
2022/07/13 14:16:54;;;;;;;9.02;1.92;;;;;;;;;;10383146;28;20281;-56
2022/07/13 14:21:55;;;;;;;13.10;2.13;;;;;;;;;;10391921;28;20033;-59
2022/07/13 14:26:56;;;;;;;4.20;1.70;;;;;;;;;;10385093;28;20038;-58
2022/07/13 14:31:57;;;;;;;9.85;2.10;;;;;;;;;;10392565;28;20588;-57
2022/07/13 14:36:59;;;;;;;4.50;1.92;;;;;;;;;;10406383;28;20056;-55
2022/07/13 14:42:00;;;;;;;4.05;1.80;;;;;;;;;;10388800;28;20025;-51
2022/07/13 14:47:02;;;;;;;4.38;2.00;;;;;;;;;;10400369;28;20030;-57
2022/07/13 14:52:03;;;;;;;6.13;1.88;;;;;;;;;;10390309;28;20052;-55
2022/07/13 14:57:04;;;;;;;6.20;1.90;;;;;;;;;;10396901;28;20108;-55
2022/07/13 15:02:04;;;;;;;4.43;1.80;;;;;;;;;;10387450;28;20056;-58
2022/07/13 15:07:06;;;;;;;2.72;1.58;;;;;;;;;;10403339;28;20852;-57
2022/07/13 15:12:06;;;;;;;13.63;2.05;;;;;;;;;;10404442;28;20044;-58
2022/07/13 15:17:07;;;;;;;7.05;1.80;;;;;;;;;;10398309;28;20033;-57
2022/07/13 15:22:08;;;;;;;4.40;2.00;;;;;;;;;;10384783;28;20064;-57
2022/07/13 15:27:08;;;;;;;7.20;2.08;;;;;;;;;;10396504;28;20050;-54
2022/07/13 15:32:10;;;;;;;2.85;1.95;;;;;;;;;;10407862;28;20123;-57
2022/07/13 15:37:10;;;;;;;4.82;1.92;;;;;;;;;;10395711;28;20061;-57
2022/07/13 15:42:11;;;;;;;3.95;1.92;;;;;;;;;;10382659;28;20045;-57
2022/07/13 15:47:11;;;;;;;5.72;2.22;;;;;;;;;;10403977;28;20072;-58
2022/07/13 15:52:12;;;;;;;7.53;1.77;;;;;;;;;;10380902;28;20030;-56
2022/07/13 15:57:13;;;;;;;3.03;1.60;;;;;;;;;;10378935;28;20485;-58
2022/07/13 16:02:14;;;;;;;7.40;1.92;;;;;;;;;;10396780;28;20549;-57
2022/07/13 16:07:14;;;;;;;2.97;1.63;;;;;;;;;;10393451;28;20029;-58
2022/07/13 16:12:15;;;;;;;4.00;1.85;;;;;;;;;;10388177;28;20026;-56
2022/07/13 16:17:16;;;;;;;8.20;1.90;;;;;;;;;;10390174;28;20500;-57
2022/07/13 16:22:17;;;;;;;11.88;2.30;;;;;;;;;;10393612;28;20381;-57
2022/07/13 16:27:18;;;;;;;3.78;1.80;;;;;;;;;;10402105;28;20056;-57
2022/07/13 16:32:18;;;;;;;5.57;2.08;;;;;;;;;;10392350;28;20025;-58
2022/07/13 16:37:19;;;;;;;2.95;1.65;;;;;;;;;;10397876;28;20542;-59
2022/07/13 16:42:20;;;;;;;2.45;1.70;;;;;;;;;;10402342;28;20489;-59
2022/07/13 16:47:20;;;;;;;6.50;1.73;;;;;;;;;;10390832;28;20024;-61
2022/07/13 16:52:23;;;;;;;3.90;1.52;;;;;;;;;;10396034;28;20533;-58
2022/07/13 16:57:23;;;;;;;2.67;1.70;;;;;;;;;;10384744;28;20132;-58
2022/07/13 17:02:24;;;;;;;4.88;1.92;;;;;;;;;;10398622;28;20113;-56
2022/07/13 17:07:25;;;;;;;3.63;2.10;;;;;;;;;;10392813;28;20030;-53
2022/07/13 17:12:26;;;;;;;6.88;1.70;;;;;;;;;;10392064;28;20167;-53
2022/07/13 17:17:26;;;;;;;5.80;1.70;;;;;;;;;;10392331;28;20436;-54
2022/07/13 17:22:27;;;;;;;4.15;1.50;;;;;;;;;;10393258;28;20125;-55
2022/07/13 17:27:27;;;;;;;5.25;1.55;;;;;;;;;;10399110;28;20045;-54
2022/07/13 17:32:28;;;;;;;2.67;1.48;;;;;;;;;;10407526;28;20098;-56
2022/07/13 17:37:28;;;;;;;4.15;1.45;;;;;;;;;;10408746;28;20152;-53
2022/07/13 17:42:29;;;;;;;3.60;1.42;;;;;;;;;;10396885;28;20060;-56
2022/07/13 17:47:30;;;;;;;3.45;1.20;;;;;;;;;;10384315;28;20037;-56
2022/07/13 17:52:30;;;;;;;3.80;1.50;;;;;;;;;;10396621;28;20037;-56
2022/07/13 17:57:31;;;;;;;4.40;2.03;;;;;;;;;;10395065;28;20358;-51
2022/07/13 18:02:31;;;;;;;7.43;1.50;;;;;;;;;;10401462;28;20377;-52
2022/07/13 18:07:32;;;;;;;3.53;1.25;;;;;;;;;;10397784;28;20101;-54
2022/07/13 18:12:33;;;;;;;3.35;1.63;;;;;;;;;;10405383;28;20101;-55
2022/07/13 18:17:34;;;;;;;3.42;1.63;;;;;;;;;;10379813;28;20064;-50
2022/07/13 18:22:34;;;;;;;3.72;1.67;;;;;;;;;;10382534;28;20091;-57
2022/07/13 18:27:35;;;;;;;2.85;1.65;;;;;;;;;;10385706;28;20112;-56
2022/07/13 18:32:37;;;;;;;4.90;1.90;;;;;;;;;;10388393;28;20253;-57
2022/07/13 18:37:38;;;;;;;1.98;1.50;;;;;;;;;;10403101;28;20033;-56
2022/07/13 18:42:39;;;;;;;4.35;1.60;;;;;;;;;;10391223;28;20037;-56
2022/07/13 18:47:39;;;;;;;2.70;1.80;;;;;;;;;;10388196;28;20492;-53
2022/07/13 18:52:40;;;;;;;18.42;2.88;;;;;;;;;;10393741;28;20042;-55
2022/07/13 18:57:40;;;;;;;12.98;2.53;;;;;;;;;;10392032;28;20033;-53
2022/07/13 19:02:41;;;;;;;9.23;2.47;;;;;;;;;;10397192;28;20513;-57
2022/07/13 19:07:42;;;;;;;8.63;2.38;;;;;;;;;;10395678;28;20458;-51
2022/07/13 19:12:43;;;;;;;6.95;2.25;;;;;;;;;;10378801;28;20029;-51
2022/07/13 19:17:44;;;;;;;9.80;2.53;;;;;;;;;;10388579;28;20377;-53
2022/07/13 19:22:44;;;;;;;7.68;2.05;;;;;;;;;;10401942;28;20398;-57
2022/07/13 19:27:50;;;;;;;10.00;1.80;;;;;;;;;;10378751;28;20122;-56
2022/07/13 19:32:51;;;;;;;8.27;1.85;;;;;;;;;;10390351;28;20030;-56
2022/07/13 19:37:51;;;;;;;4.82;2.13;;;;;;;;;;10393575;28;20034;-57
2022/07/13 19:42:52;;;;;;;13.52;2.30;;;;;;;;;;10396997;28;20025;-57
2022/07/13 19:47:52;;;;;;;10.57;2.33;;;;;;;;;;10395359;28;20037;-48
2022/07/13 19:52:53;;;;;;;3.10;2.00;;;;;;;;;;10392997;28;20042;-54
2022/07/13 19:57:54;;;;;;;4.90;2.05;;;;;;;;;;10390301;28;20120;-54
2022/07/13 20:02:57;;;;;;;6.13;1.90;;;;;;;;;;10384725;28;20108;-53
2022/07/13 20:07:58;;;;;;;9.95;1.77;;;;;;;;;;10396714;28;20056;-49
2022/07/13 20:12:58;;;;;;;8.15;1.60;;;;;;;;;;10392640;28;20034;-54
2022/07/13 20:17:59;;;;;;;6.63;2.00;;;;;;;;;;10398074;28;20591;-50
2022/07/13 20:23:00;;;;;;;7.65;1.90;;;;;;;;;;10396651;28;20033;-50
2022/07/13 20:28:00;;;;;;;7.03;2.20;;;;;;;;;;10391573;28;20065;-55
2022/07/13 20:33:01;;;;;;;5.95;1.63;;;;;;;;;;10390159;28;20041;-54
2022/07/13 20:38:03;;;;;;;4.43;1.52;;;;;;;;;;10403540;28;20053;-51
2022/07/13 20:43:03;;;;;;;3.47;1.77;;;;;;;;;;10390422;28;20041;-52
2022/07/13 20:48:05;;;;;;;7.28;1.60;;;;;;;;;;10381011;28;20024;-52
2022/07/13 20:53:06;;;;;;;4.15;1.85;;;;;;;;;;10371067;28;20046;-53
2022/07/13 20:58:07;;;;;;;4.93;2.10;;;;;;;;;;10380408;28;20025;-52
2022/07/13 21:03:08;;;;;;;15.43;2.30;;;;;;;;;;10386747;28;20266;-52
2022/07/13 21:08:08;;;;;;;4.47;1.65;;;;;;;;;;10379602;28;20026;-53
2022/07/13 21:13:09;;;;;;;7.68;2.60;;;;;;;;;;10390133;28;20033;-53
2022/07/13 21:18:10;;;;;;;6.28;2.03;;;;;;;;;;10411425;28;20045;-52
2022/07/13 21:23:12;;;;;;;5.35;1.55;;;;;;;;;;10403618;28;20034;-55
2022/07/13 21:28:13;;;;;;;10.55;1.75;;;;;;;;;;10401923;28;20440;-53
2022/07/13 21:33:13;;;;;;;4.97;1.98;;;;;;;;;;10397453;28;20044;-53
2022/07/13 21:38:15;;;;;;;4.78;1.63;;;;;;;;;;10396970;28;20041;-50
2022/07/13 21:43:17;;;;;;;8.07;2.00;;;;;;;;;;10404784;28;20053;-53
2022/07/13 21:48:17;;;;;;;5.50;2.00;;;;;;;;;;10380009;28;20380;-54
2022/07/13 21:53:18;;;;;;;5.72;1.90;;;;;;;;;;10391587;28;20042;-52
2022/07/13 21:58:19;;;;;;;5.25;2.00;;;;;;;;;;10387904;28;20108;-53
2022/07/13 22:03:19;;;;;;;7.00;1.98;;;;;;;;;;10388604;28;20029;-55
2022/07/13 22:08:19;;;;;;;4.10;2.00;;;;;;;;;;10412623;28;20025;-55
2022/07/13 22:14:16;;;;;;;8.53;2.87;;;;;;;;;;10413787;28;20026;-56
2022/07/13 22:20:13;;;;;;;12.53;2.53;;;;;;;;;;10390646;28;20040;-55
2022/07/13 22:26:10;;;;;;;7.50;2.40;;;;;;;;;;10385030;28;20037;-54
2022/07/13 22:32:07;;;;;;;5.03;2.53;;;;;;;;;;10402807;28;20140;-54
2022/07/13 22:38:03;;;;;;;6.23;2.63;;;;;;;;;;10404576;28;20036;-55
2022/07/13 22:44:00;;;;;;;9.80;2.40;;;;;;;;;;10394022;28;20565;-54
2022/07/13 22:49:56;;;;;;;9.88;2.50;;;;;;;;;;10398155;28;20044;-55
2022/07/13 22:55:53;;;;;;;6.50;2.60;;;;;;;;;;10383706;28;20280;-49
2022/07/13 23:01:50;;;;;;;3.53;2.23;;;;;;;;;;10392663;28;20053;-53
2022/07/13 23:07:46;;;;;;;9.18;2.90;;;;;;;;;;10407385;28;20500;-52
2022/07/13 23:13:44;;;;;;;6.18;2.08;;;;;;;;;;10396248;28;20034;-52
2022/07/13 23:19:41;;;;;;;6.22;2.40;;;;;;;;;;10406901;28;20032;-53
2022/07/13 23:25:37;;;;;;;4.93;2.40;;;;;;;;;;10396481;28;20444;-53
2022/07/13 23:31:20;;;;;;;10.17;2.70;;;;;;;;;;10403954;28;20034;-53
2022/07/13 23:36:21;;;;;;;9.27;2.60;;;;;;;;;;10394314;28;20273;-51
2022/07/13 23:41:22;;;;;;;8.05;2.65;;;;;;;;;;10405188;28;20307;-53
2022/07/13 23:46:23;;;;;;;12.57;2.50;;;;;;;;;;10400904;28;20067;-52
2022/07/13 23:51:24;;;;;;;5.65;3.08;;;;;;;;;;10398423;28;20087;-56
2022/07/13 23:56:24;;;;;;;7.50;2.50;;;;;;;;;;10381684;28;20029;-54
